Airfield :
LOGIN :

Register | Disclaimer

   EN    FR    IT 

 










Legend :    VFR   Marginal VFR   IFR   Intensive IFR   Very Intensive IFR
Visi :
Ceiling :
>= 8 km
>= 3000ft
5 to 8 km
1000 to 3000 ft
1500m to 5 km
500 to 1000 ft
800 to 1500m
200 to 500 ft
< 800m
< 200 ft
Symbols :   Thunderstorms  Fog  Heavy snow  Heavy precipitations  Wind > 20 kt
SIGMETs :     Misc.  Thunderstorms  Icing  Turbulence  Mountain Waves  Volcanic Ashes






- Airport Elevation : 12 ft
- IATA code : NCE


LFMN - Nice

CURRENT METAR :
  • 111930Z 32006KT 9999 BKN048 12/09 Q1007 NOSIG

EXPIRED METARs :
  • 111900Z 31006KT 290V350 9999 FEW040 BKN050 12/10 Q1007 NOSIG
  • 111830Z 33004KT 9999 FEW040 BKN050 12/09 Q1007 NOSIG
  • 111800Z 32005KT 9999 SCT043 BKN053 12/09 Q1007 NOSIG
  • 111730Z 28004KT 250V320 9999 OVC043 13/09 Q1007 NOSIG
  • 111700Z 29005KT 250V330 9999 OVC043 13/09 Q1007 NOSIG

TAF TAF LFMN
Valid from the 11 at 15:00 until the 12 at 21:00 UTC


111400Z 1115/1221 02010KT 9999 BKN050
PROB40
TEMPO 1115/1120 6000 RA BKN040
BECMG 1115/1117 30006KT
BECMG 1121/1123 34010KT CAVOK
BECMG 1210/1212 24008KT
BECMG 1216/1218 34010KT
ATIS : +33 4 93 17 21 16



MET'MAP, your aeronautical weather chart ! - Copyright ORBIFLY December 2007 - Disclaimer

ORBIFLY MET'MAP TEAM :

Programming & Development : Alexandra Zaïnal
Concept & Development : Baudouin d'Aumeries
Co-Development & Prog : Marc-Olivier Méhu
Technical & hardware support : Manuel Goepfert

Contact : metmap@orbifly.com




SOURCES & CREDITS :

   NOAA